Route Details

Aircraft Information
Group: European Fleet
Types: A30F, A31F, B738
Route Data
Distance: 517nm
Duration: 1h 30m
Origin METAR: EIDW 072330Z VRB03KT 9999 FEW038 BKN044 05/03 Q1035 NOSIG
Dest. METAR: EDDK 072320Z AUTO VRB01KT CAVOK M03/M06 Q1039 NOSIG
Freight Data
(for Feb 7, 2023)
Load Factor:
108%
Manifested Cargo: 109,668lbs
Financial History
Total Freight: 274,468lbs
Average Load: 0lbs/flt
Fuel Used: 110,197lbs
Avg. Fuel Used: 0lbs/flt
Fuel Expense: $51,170
Avg. Fuel Expense: $0
Avg. Fuel Cost: $0/lbs
Total Gross Income: $608,000
Pilot Pay: $1,444
Total Expenses: $119,254
Total Revenue: $434,446
Average Revenue: $0

Capitol Logistics 534




EIDW
Dublin Airport
Dublin, IE
EDDK
Cologne Bonn Airport
Cologne, DE